This is the latest recevied weather packets stored in our database for station/object KJ4EWA. If no packets are shown the sender has not sent any weather packets the latest 10 day(s).
| Time | Temp. | Humidity | Pressure | Rain* | Wind** | Luminosity | Snow |
|---|---|---|---|---|---|---|---|
| 1777654765 | 20° C | 99% | 1015.9 hPa | 0 mm | - | 201 W/m² | - |
| 1777654462 | 20° C | 99% | 1015.9 hPa | 0 mm | - | 203 W/m² | - |
| 1777654160 | 19.44° C | 99% | 1016.5 hPa | 0 mm | - | 75 W/m² | - |
| 1777653857 | 19.44° C | 99% | 1016.7 hPa | 0 mm | - | 53 W/m² | - |
| 1777653554 | 19.44° C | 99% | 1016.9 hPa | 0 mm | - | 51 W/m² | - |
| 1777653250 | 20° C | 99% | 1016.7 hPa | 0 mm | - | 133 W/m² | - |
| 1777652947 | 19.44° C | 99% | 1016.7 hPa | 0 mm | - | 148 W/m² | - |
| 1777652643 | 18.89° C | 99% | 1016.6 hPa | 0 mm | - | 99 W/m² | - |
| 1777652340 | 19.44° C | 99% | 1016.6 hPa | 0 mm | - | 147 W/m² | - |
| 1777652037 | 18.89° C | 99% | 1016.6 hPa | 0 mm | - | 84 W/m² | - |
| 1777651734 | 18.89° C | 99% | 1016.6 hPa | 0 mm | - | 76 W/m² | - |
| 1777651430 | 18.89° C | 99% | 1017 hPa | 0 mm | - | 65 W/m² | - |
| 1777651128 | 18.33° C | 99% | 1016.9 hPa | 0 mm | - | 55 W/m² | - |
| 1777650824 | 18.89° C | 99% | 1016.8 hPa | 0 mm | - | 55 W/m² | - |
| 1777650521 | 18.89° C | 99% | 1016.7 hPa | 0 mm | - | 28 W/m² | - |
| 1777650219 | 18.89° C | 99% | 1016.9 hPa | 0 mm | - | 16 W/m² | - |
| 1777649916 | 18.89° C | 99% | 1016.9 hPa | 0 mm | - | 39 W/m² | - |
| 1777649613 | 18.89° C | 99% | 1016.4 hPa | 0 mm | - | 43 W/m² | - |
| 1777649309 | 19.44° C | 99% | 1016.4 hPa | 0 mm | - | 50 W/m² | - |
| 1777649006 | 19.44° C | 99% | 1016.6 hPa | 0 mm | - | 92 W/m² | - |
| 1777648704 | 18.89° C | 99% | 1016.6 hPa | 0 mm | - | 97 W/m² | - |
| 1777648400 | 18.89° C | 99% | 1016.9 hPa | 0 mm | - | 84 W/m² | - |
| 1777648096 | 18.89° C | 99% | 1016.9 hPa | 0 mm | - | 73 W/m² | - |
| 1777647793 | 18.89° C | 99% | 1016.9 hPa | 0 mm | - | 38 W/m² | - |
| 1777647489 | 18.89° C | 99% | 1016.7 hPa | 0 mm | - | 49 W/m² | - |
* Rain latest hour (hover to see other rain measurements)
** Current wind speed in m/s (hover to see current wind gust speed)